sensor_id;sensor_type;location;lat;lon;timestamp;P1;durP1;ratioP1;P2;durP2;ratioP2
80229;SDS011;69540;42.136;24.742;2023-07-16T00:02:24;2.20;;;2.10;;
80229;SDS011;69540;42.136;24.742;2023-07-16T00:04:50;2.13;;;2.03;;
80229;SDS011;69540;42.136;24.742;2023-07-16T00:07:16;2.00;;;1.90;;
80229;SDS011;69540;42.136;24.742;2023-07-16T00:09:43;1.98;;;1.88;;
80229;SDS011;69540;42.136;24.742;2023-07-16T00:12:09;2.28;;;2.17;;
80229;SDS011;69540;42.136;24.742;2023-07-16T00:14:35;2.10;;;2.00;;
80229;SDS011;69540;42.136;24.742;2023-07-16T00:17:00;2.13;;;2.03;;
80229;SDS011;69540;42.136;24.742;2023-07-16T00:19:26;2.10;;;2.00;;
80229;SDS011;69540;42.136;24.742;2023-07-16T00:21:51;2.13;;;2.03;;
80229;SDS011;69540;42.136;24.742;2023-07-16T00:24:17;2.13;;;2.03;;
80229;SDS011;69540;42.136;24.742;2023-07-16T00:26:43;2.22;;;2.13;;
80229;SDS011;69540;42.136;24.742;2023-07-16T00:29:08;2.17;;;2.08;;
80229;SDS011;69540;42.136;24.742;2023-07-16T00:31:34;2.13;;;2.03;;
80229;SDS011;69540;42.136;24.742;2023-07-16T00:34:00;2.03;;;1.92;;
80229;SDS011;69540;42.136;24.742;2023-07-16T00:36:25;2.22;;;2.03;;
80229;SDS011;69540;42.136;24.742;2023-07-16T00:38:51;2.00;;;1.90;;
80229;SDS011;69540;42.136;24.742;2023-07-16T00:41:16;1.98;;;1.88;;
80229;SDS011;69540;42.136;24.742;2023-07-16T00:43:42;2.10;;;2.00;;
80229;SDS011;69540;42.136;24.742;2023-07-16T00:46:08;2.30;;;2.10;;
80229;SDS011;69540;42.136;24.742;2023-07-16T00:48:35;2.03;;;1.92;;
80229;SDS011;69540;42.136;24.742;2023-07-16T00:51:01;2.08;;;1.98;;
80229;SDS011;69540;42.136;24.742;2023-07-16T00:53:28;2.05;;;1.95;;
80229;SDS011;69540;42.136;24.742;2023-07-16T00:55:55;1.90;;;1.80;;
80229;SDS011;69540;42.136;24.742;2023-07-16T00:58:20;2.13;;;2.03;;
80229;SDS011;69540;42.136;24.742;2023-07-16T01:00:46;2.00;;;1.90;;
80229;SDS011;69540;42.136;24.742;2023-07-16T01:03:13;2.03;;;1.92;;
80229;SDS011;69540;42.136;24.742;2023-07-16T01:05:51;2.00;;;1.90;;
80229;SDS011;69540;42.136;24.742;2023-07-16T01:10:59;2.30;;;2.20;;
80229;SDS011;69540;42.136;24.742;2023-07-16T01:13:26;1.98;;;1.88;;
80229;SDS011;69540;42.136;24.742;2023-07-16T01:15:52;2.00;;;1.90;;
80229;SDS011;69540;42.136;24.742;2023-07-16T01:18:19;2.05;;;1.95;;
80229;SDS011;69540;42.136;24.742;2023-07-16T01:20:44;1.90;;;1.80;;
80229;SDS011;69540;42.136;24.742;2023-07-16T01:32:03;1.77;;;1.67;;
80229;SDS011;69540;42.136;24.742;2023-07-16T01:34:31;2.17;;;2.08;;
80229;SDS011;69540;42.136;24.742;2023-07-16T01:37:01;2.03;;;1.92;;
80229;SDS011;69540;42.136;24.742;2023-07-16T01:39:28;2.10;;;2.00;;
80229;SDS011;69540;42.136;24.742;2023-07-16T01:41:55;1.92;;;1.83;;
80229;SDS011;69540;42.136;24.742;2023-07-16T01:44:21;2.20;;;2.10;;
80229;SDS011;69540;42.136;24.742;2023-07-16T01:49:31;1.65;;;1.55;;
80229;SDS011;69540;42.136;24.742;2023-07-16T01:51:57;1.88;;;1.77;;
80229;SDS011;69540;42.136;24.742;2023-07-16T01:54:24;1.90;;;1.80;;
80229;SDS011;69540;42.136;24.742;2023-07-16T01:56:49;1.90;;;1.80;;
80229;SDS011;69540;42.136;24.742;2023-07-16T01:59:15;1.92;;;1.83;;
80229;SDS011;69540;42.136;24.742;2023-07-16T02:01:41;1.90;;;1.80;;
80229;SDS011;69540;42.136;24.742;2023-07-16T02:04:06;2.00;;;1.90;;
80229;SDS011;69540;42.136;24.742;2023-07-16T02:06:32;2.10;;;2.00;;
80229;SDS011;69540;42.136;24.742;2023-07-16T02:08:57;2.10;;;2.00;;
80229;SDS011;69540;42.136;24.742;2023-07-16T02:11:23;2.10;;;2.00;;
80229;SDS011;69540;42.136;24.742;2023-07-16T02:13:49;1.95;;;1.85;;
80229;SDS011;69540;42.136;24.742;2023-07-16T02:16:14;2.22;;;2.13;;
80229;SDS011;69540;42.136;24.742;2023-07-16T02:18:40;1.98;;;1.88;;
80229;SDS011;69540;42.136;24.742;2023-07-16T02:21:05;2.00;;;1.90;;
80229;SDS011;69540;42.136;24.742;2023-07-16T02:23:31;2.15;;;2.05;;
80229;SDS011;69540;42.136;24.742;2023-07-16T02:25:57;1.90;;;1.80;;
80229;SDS011;69540;42.136;24.742;2023-07-16T02:28:22;2.25;;;2.15;;
80229;SDS011;69540;42.136;24.742;2023-07-16T02:30:48;1.85;;;1.75;;
80229;SDS011;69540;42.136;24.742;2023-07-16T02:33:15;2.13;;;2.03;;
80229;SDS011;69540;42.136;24.742;2023-07-16T02:35:45;1.70;;;1.60;;
80229;SDS011;69540;42.136;24.742;2023-07-16T02:38:16;2.00;;;1.90;;
80229;SDS011;69540;42.136;24.742;2023-07-16T02:40:45;1.92;;;1.83;;
80229;SDS011;69540;42.136;24.742;2023-07-16T02:43:12;1.95;;;1.85;;
80229;SDS011;69540;42.136;24.742;2023-07-16T02:45:37;1.75;;;1.65;;
80229;SDS011;69540;42.136;24.742;2023-07-16T02:48:04;1.75;;;1.65;;
80229;SDS011;69540;42.136;24.742;2023-07-16T02:50:34;2.08;;;1.98;;
80229;SDS011;69540;42.136;24.742;2023-07-16T02:53:01;1.90;;;1.80;;
80229;SDS011;69540;42.136;24.742;2023-07-16T02:55:27;1.80;;;1.70;;
80229;SDS011;69540;42.136;24.742;2023-07-16T02:57:53;1.85;;;1.75;;
80229;SDS011;69540;42.136;24.742;2023-07-16T03:00:19;1.52;;;1.52;;
80229;SDS011;69540;42.136;24.742;2023-07-16T03:02:44;2.42;;;2.00;;
80229;SDS011;69540;42.136;24.742;2023-07-16T03:05:10;2.10;;;2.00;;
80229;SDS011;69540;42.136;24.742;2023-07-16T03:07:36;1.98;;;1.88;;
80229;SDS011;69540;42.136;24.742;2023-07-16T03:10:01;1.80;;;1.70;;
80229;SDS011;69540;42.136;24.742;2023-07-16T03:12:28;1.65;;;1.65;;
80229;SDS011;69540;42.136;24.742;2023-07-16T03:14:53;1.52;;;1.52;;
80229;SDS011;69540;42.136;24.742;2023-07-16T03:17:20;2.10;;;2.00;;
80229;SDS011;69540;42.136;24.742;2023-07-16T03:19:47;1.75;;;1.65;;
80229;SDS011;69540;42.136;24.742;2023-07-16T03:22:13;2.08;;;1.98;;
80229;SDS011;69540;42.136;24.742;2023-07-16T03:24:39;2.10;;;2.00;;
80229;SDS011;69540;42.136;24.742;2023-07-16T03:27:05;1.85;;;1.75;;
80229;SDS011;69540;42.136;24.742;2023-07-16T03:29:32;1.55;;;1.50;;
80229;SDS011;69540;42.136;24.742;2023-07-16T03:31:58;1.67;;;1.67;;
80229;SDS011;69540;42.136;24.742;2023-07-16T03:34:24;1.70;;;1.60;;
80229;SDS011;69540;42.136;24.742;2023-07-16T03:36:50;1.60;;;1.50;;
80229;SDS011;69540;42.136;24.742;2023-07-16T03:39:16;1.50;;;1.50;;
80229;SDS011;69540;42.136;24.742;2023-07-16T03:41:42;1.92;;;1.83;;
80229;SDS011;69540;42.136;24.742;2023-07-16T03:44:08;1.80;;;1.70;;
80229;SDS011;69540;42.136;24.742;2023-07-16T03:46:33;1.90;;;1.80;;
80229;SDS011;69540;42.136;24.742;2023-07-16T03:48:59;1.73;;;1.63;;
80229;SDS011;69540;42.136;24.742;2023-07-16T03:51:25;2.05;;;1.95;;
80229;SDS011;69540;42.136;24.742;2023-07-16T03:53:50;1.80;;;1.70;;
80229;SDS011;69540;42.136;24.742;2023-07-16T03:56:16;2.03;;;1.92;;
80229;SDS011;69540;42.136;24.742;2023-07-16T03:58:42;2.00;;;1.90;;
80229;SDS011;69540;42.136;24.742;2023-07-16T04:01:08;1.83;;;1.73;;
80229;SDS011;69540;42.136;24.742;2023-07-16T04:03:34;1.58;;;1.55;;
80229;SDS011;69540;42.136;24.742;2023-07-16T04:06:01;1.50;;;1.50;;
80229;SDS011;69540;42.136;24.742;2023-07-16T04:08:31;1.90;;;1.80;;
80229;SDS011;69540;42.136;24.742;2023-07-16T04:10:57;1.75;;;1.65;;
80229;SDS011;69540;42.136;24.742;2023-07-16T04:13:23;1.98;;;1.88;;
80229;SDS011;69540;42.136;24.742;2023-07-16T04:15:49;2.10;;;2.00;;
80229;SDS011;69540;42.136;24.742;2023-07-16T04:18:14;1.48;;;1.48;;
80229;SDS011;69540;42.136;24.742;2023-07-16T04:20:40;2.10;;;2.00;;
80229;SDS011;69540;42.136;24.742;2023-07-16T04:23:06;1.70;;;1.60;;
80229;SDS011;69540;42.136;24.742;2023-07-16T04:25:31;1.63;;;1.63;;
80229;SDS011;69540;42.136;24.742;2023-07-16T04:27:57;1.67;;;1.63;;
80229;SDS011;69540;42.136;24.742;2023-07-16T04:30:23;1.25;;;1.25;;
80229;SDS011;69540;42.136;24.742;2023-07-16T04:32:49;1.80;;;1.70;;
80229;SDS011;69540;42.136;24.742;2023-07-16T04:35:14;1.83;;;1.73;;
80229;SDS011;69540;42.136;24.742;2023-07-16T04:37:40;1.52;;;1.52;;
80229;SDS011;69540;42.136;24.742;2023-07-16T04:40:06;1.52;;;1.52;;
80229;SDS011;69540;42.136;24.742;2023-07-16T04:42:32;1.45;;;1.45;;
80229;SDS011;69540;42.136;24.742;2023-07-16T04:44:57;2.05;;;1.95;;
80229;SDS011;69540;42.136;24.742;2023-07-16T04:47:23;1.85;;;1.75;;
80229;SDS011;69540;42.136;24.742;2023-07-16T04:49:49;1.80;;;1.75;;
80229;SDS011;69540;42.136;24.742;2023-07-16T04:52:14;1.88;;;1.77;;
80229;SDS011;69540;42.136;24.742;2023-07-16T04:54:40;1.67;;;1.60;;
80229;SDS011;69540;42.136;24.742;2023-07-16T04:57:06;1.80;;;1.70;;
80229;SDS011;69540;42.136;24.742;2023-07-16T04:59:32;1.80;;;1.70;;
80229;SDS011;69540;42.136;24.742;2023-07-16T05:01:58;1.60;;;1.60;;
80229;SDS011;69540;42.136;24.742;2023-07-16T05:04:24;1.70;;;1.60;;
80229;SDS011;69540;42.136;24.742;2023-07-16T05:06:51;1.70;;;1.60;;
80229;SDS011;69540;42.136;24.742;2023-07-16T05:09:17;1.83;;;1.73;;
80229;SDS011;69540;42.136;24.742;2023-07-16T05:11:43;1.55;;;1.52;;
80229;SDS011;69540;42.136;24.742;2023-07-16T05:14:08;1.60;;;1.50;;
80229;SDS011;69540;42.136;24.742;2023-07-16T05:16:34;1.75;;;1.65;;
80229;SDS011;69540;42.136;24.742;2023-07-16T05:18:59;1.70;;;1.60;;
80229;SDS011;69540;42.136;24.742;2023-07-16T05:21:25;1.70;;;1.70;;
80229;SDS011;69540;42.136;24.742;2023-07-16T05:23:51;1.90;;;1.80;;
80229;SDS011;69540;42.136;24.742;2023-07-16T05:26:16;1.60;;;1.50;;
80229;SDS011;69540;42.136;24.742;2023-07-16T05:28:42;1.67;;;1.60;;
80229;SDS011;69540;42.136;24.742;2023-07-16T05:31:07;1.52;;;1.50;;
80229;SDS011;69540;42.136;24.742;2023-07-16T05:33:33;2.17;;;1.80;;
80229;SDS011;69540;42.136;24.742;2023-07-16T05:35:59;1.63;;;1.52;;
80229;SDS011;69540;42.136;24.742;2023-07-16T05:38:24;1.80;;;1.70;;
80229;SDS011;69540;42.136;24.742;2023-07-16T05:40:50;1.33;;;1.33;;
80229;SDS011;69540;42.136;24.742;2023-07-16T05:43:16;1.35;;;1.35;;
80229;SDS011;69540;42.136;24.742;2023-07-16T05:45:41;1.50;;;1.50;;
80229;SDS011;69540;42.136;24.742;2023-07-16T05:48:07;1.20;;;1.20;;
80229;SDS011;69540;42.136;24.742;2023-07-16T05:50:33;1.70;;;1.60;;
80229;SDS011;69540;42.136;24.742;2023-07-16T05:52:58;1.83;;;1.73;;
80229;SDS011;69540;42.136;24.742;2023-07-16T05:55:24;1.70;;;1.60;;
80229;SDS011;69540;42.136;24.742;2023-07-16T05:57:50;1.80;;;1.70;;
80229;SDS011;69540;42.136;24.742;2023-07-16T06:00:16;1.65;;;1.55;;
80229;SDS011;69540;42.136;24.742;2023-07-16T06:02:42;1.55;;;1.45;;
80229;SDS011;69540;42.136;24.742;2023-07-16T06:05:08;1.63;;;1.52;;
80229;SDS011;69540;42.136;24.742;2023-07-16T06:07:34;1.58;;;1.50;;
80229;SDS011;69540;42.136;24.742;2023-07-16T06:09:59;1.70;;;1.60;;
80229;SDS011;69540;42.136;24.742;2023-07-16T06:12:25;2.00;;;1.90;;
80229;SDS011;69540;42.136;24.742;2023-07-16T06:14:51;1.83;;;1.73;;
80229;SDS011;69540;42.136;24.742;2023-07-16T06:17:16;1.70;;;1.60;;
80229;SDS011;69540;42.136;24.742;2023-07-16T06:19:42;1.80;;;1.70;;
80229;SDS011;69540;42.136;24.742;2023-07-16T06:22:08;1.75;;;1.65;;
80229;SDS011;69540;42.136;24.742;2023-07-16T06:24:36;1.52;;;1.52;;
80229;SDS011;69540;42.136;24.742;2023-07-16T06:27:02;1.65;;;1.55;;
80229;SDS011;69540;42.136;24.742;2023-07-16T06:29:28;1.70;;;1.60;;
80229;SDS011;69540;42.136;24.742;2023-07-16T06:31:54;1.50;;;1.50;;
80229;SDS011;69540;42.136;24.742;2023-07-16T06:34:23;1.45;;;1.35;;
80229;SDS011;69540;42.136;24.742;2023-07-16T06:36:50;1.63;;;1.52;;
80229;SDS011;69540;42.136;24.742;2023-07-16T06:39:15;1.83;;;1.73;;
80229;SDS011;69540;42.136;24.742;2023-07-16T06:41:41;1.45;;;1.45;;
80229;SDS011;69540;42.136;24.742;2023-07-16T06:44:06;1.88;;;1.77;;
80229;SDS011;69540;42.136;24.742;2023-07-16T06:46:32;1.70;;;1.60;;
80229;SDS011;69540;42.136;24.742;2023-07-16T06:48:58;1.58;;;1.55;;
80229;SDS011;69540;42.136;24.742;2023-07-16T06:51:23;1.48;;;1.40;;
80229;SDS011;69540;42.136;24.742;2023-07-16T06:53:49;1.42;;;1.42;;
80229;SDS011;69540;42.136;24.742;2023-07-16T06:56:15;1.80;;;1.70;;
80229;SDS011;69540;42.136;24.742;2023-07-16T06:58:40;1.30;;;1.30;;
80229;SDS011;69540;42.136;24.742;2023-07-16T07:01:06;1.55;;;1.52;;
80229;SDS011;69540;42.136;24.742;2023-07-16T07:03:32;1.85;;;1.75;;
80229;SDS011;69540;42.136;24.742;2023-07-16T07:05:58;1.38;;;1.38;;
80229;SDS011;69540;42.136;24.742;2023-07-16T07:08:28;1.50;;;1.50;;
80229;SDS011;69540;42.136;24.742;2023-07-16T07:10:54;1.90;;;1.80;;
80229;SDS011;69540;42.136;24.742;2023-07-16T07:13:20;1.90;;;1.80;;
80229;SDS011;69540;42.136;24.742;2023-07-16T07:15:45;1.75;;;1.65;;
80229;SDS011;69540;42.136;24.742;2023-07-16T07:18:12;1.90;;;1.80;;
80229;SDS011;69540;42.136;24.742;2023-07-16T07:20:38;1.73;;;1.63;;
80229;SDS011;69540;42.136;24.742;2023-07-16T07:23:04;1.70;;;1.60;;
80229;SDS011;69540;42.136;24.742;2023-07-16T07:25:30;1.30;;;1.30;;
80229;SDS011;69540;42.136;24.742;2023-07-16T07:27:56;1.30;;;1.30;;
80229;SDS011;69540;42.136;24.742;2023-07-16T07:30:22;1.70;;;1.60;;
80229;SDS011;69540;42.136;24.742;2023-07-16T07:32:47;1.70;;;1.60;;
80229;SDS011;69540;42.136;24.742;2023-07-16T07:35:13;1.60;;;1.50;;
80229;SDS011;69540;42.136;24.742;2023-07-16T07:37:39;1.52;;;1.42;;
80229;SDS011;69540;42.136;24.742;2023-07-16T07:40:05;1.75;;;1.65;;
80229;SDS011;69540;42.136;24.742;2023-07-16T07:42:31;1.70;;;1.60;;
80229;SDS011;69540;42.136;24.742;2023-07-16T07:44:56;1.88;;;1.77;;
80229;SDS011;69540;42.136;24.742;2023-07-16T07:47:22;1.70;;;1.60;;
80229;SDS011;69540;42.136;24.742;2023-07-16T07:49:48;1.35;;;1.35;;
80229;SDS011;69540;42.136;24.742;2023-07-16T07:52:13;1.70;;;1.60;;
80229;SDS011;69540;42.136;24.742;2023-07-16T07:54:39;1.48;;;1.48;;
80229;SDS011;69540;42.136;24.742;2023-07-16T07:57:05;1.52;;;1.52;;
80229;SDS011;69540;42.136;24.742;2023-07-16T07:59:31;1.48;;;1.48;;
80229;SDS011;69540;42.136;24.742;2023-07-16T08:01:57;1.20;;;1.20;;
80229;SDS011;69540;42.136;24.742;2023-07-16T08:04:23;2.00;;;1.90;;
80229;SDS011;69540;42.136;24.742;2023-07-16T08:06:50;1.42;;;1.42;;
80229;SDS011;69540;42.136;24.742;2023-07-16T08:09:16;1.55;;;1.45;;
80229;SDS011;69540;42.136;24.742;2023-07-16T08:11:42;1.42;;;1.42;;
80229;SDS011;69540;42.136;24.742;2023-07-16T08:14:07;1.77;;;1.67;;
80229;SDS011;69540;42.136;24.742;2023-07-16T08:16:33;1.40;;;1.40;;
80229;SDS011;69540;42.136;24.742;2023-07-16T08:18:59;1.30;;;1.30;;
80229;SDS011;69540;42.136;24.742;2023-07-16T08:21:24;1.65;;;1.63;;
80229;SDS011;69540;42.136;24.742;2023-07-16T08:23:51;1.50;;;1.48;;
80229;SDS011;69540;42.136;24.742;2023-07-16T08:26:17;1.60;;;1.58;;
80229;SDS011;69540;42.136;24.742;2023-07-16T08:28:42;1.58;;;1.58;;
80229;SDS011;69540;42.136;24.742;2023-07-16T08:31:09;1.80;;;1.70;;
80229;SDS011;69540;42.136;24.742;2023-07-16T08:33:36;1.50;;;1.45;;
80229;SDS011;69540;42.136;24.742;2023-07-16T08:36:02;1.30;;;1.30;;
80229;SDS011;69540;42.136;24.742;2023-07-16T08:38:28;1.33;;;1.33;;
80229;SDS011;69540;42.136;24.742;2023-07-16T08:40:54;1.20;;;1.20;;
80229;SDS011;69540;42.136;24.742;2023-07-16T08:43:19;1.33;;;1.33;;
80229;SDS011;69540;42.136;24.742;2023-07-16T08:45:46;1.50;;;1.50;;
80229;SDS011;69540;42.136;24.742;2023-07-16T08:48:13;1.33;;;1.33;;
80229;SDS011;69540;42.136;24.742;2023-07-16T08:50:39;1.38;;;1.38;;
80229;SDS011;69540;42.136;24.742;2023-07-16T08:53:07;1.45;;;1.35;;
80229;SDS011;69540;42.136;24.742;2023-07-16T08:55:33;1.45;;;1.45;;
80229;SDS011;69540;42.136;24.742;2023-07-16T08:58:03;1.48;;;1.48;;
80229;SDS011;69540;42.136;24.742;2023-07-16T09:00:29;1.48;;;1.48;;
80229;SDS011;69540;42.136;24.742;2023-07-16T09:02:55;1.23;;;1.23;;
80229;SDS011;69540;42.136;24.742;2023-07-16T09:05:21;1.40;;;1.30;;
80229;SDS011;69540;42.136;24.742;2023-07-16T09:07:48;1.48;;;1.48;;
80229;SDS011;69540;42.136;24.742;2023-07-16T09:10:14;1.45;;;1.45;;
80229;SDS011;69540;42.136;24.742;2023-07-16T09:12:43;1.70;;;1.60;;
80229;SDS011;69540;42.136;24.742;2023-07-16T09:15:10;1.42;;;1.42;;
80229;SDS011;69540;42.136;24.742;2023-07-16T09:17:36;1.60;;;1.60;;
80229;SDS011;69540;42.136;24.742;2023-07-16T09:20:03;1.48;;;1.38;;
80229;SDS011;69540;42.136;24.742;2023-07-16T09:22:31;1.20;;;1.10;;
80229;SDS011;69540;42.136;24.742;2023-07-16T09:25:01;1.55;;;1.48;;
80229;SDS011;69540;42.136;24.742;2023-07-16T09:27:28;1.38;;;1.38;;
80229;SDS011;69540;42.136;24.742;2023-07-16T09:29:54;1.42;;;1.42;;
80229;SDS011;69540;42.136;24.742;2023-07-16T09:32:20;1.48;;;1.38;;
80229;SDS011;69540;42.136;24.742;2023-07-16T09:34:49;1.27;;;1.27;;
80229;SDS011;69540;42.136;24.742;2023-07-16T09:37:15;1.50;;;1.40;;
80229;SDS011;69540;42.136;24.742;2023-07-16T09:39:43;1.33;;;1.33;;
80229;SDS011;69540;42.136;24.742;2023-07-16T09:42:11;1.50;;;1.50;;
80229;SDS011;69540;42.136;24.742;2023-07-16T09:44:38;1.60;;;1.50;;
80229;SDS011;69540;42.136;24.742;2023-07-16T09:47:06;1.23;;;1.23;;
80229;SDS011;69540;42.136;24.742;2023-07-16T09:49:32;1.20;;;1.20;;
80229;SDS011;69540;42.136;24.742;2023-07-16T09:51:58;1.58;;;1.48;;
80229;SDS011;69540;42.136;24.742;2023-07-16T09:54:26;1.33;;;1.33;;
80229;SDS011;69540;42.136;24.742;2023-07-16T09:56:57;1.40;;;1.40;;
80229;SDS011;69540;42.136;24.742;2023-07-16T09:59:25;1.50;;;1.50;;
80229;SDS011;69540;42.136;24.742;2023-07-16T10:01:54;1.30;;;1.30;;
80229;SDS011;69540;42.136;24.742;2023-07-16T10:04:22;1.27;;;1.27;;
80229;SDS011;69540;42.136;24.742;2023-07-16T10:07:18;1.40;;;1.40;;
80229;SDS011;69540;42.136;24.742;2023-07-16T10:09:51;1.40;;;1.30;;
80229;SDS011;69540;42.136;24.742;2023-07-16T10:12:19;1.45;;;1.42;;
80229;SDS011;69540;42.136;24.742;2023-07-16T10:14:50;1.10;;;1.10;;
80229;SDS011;69540;42.136;24.742;2023-07-16T10:17:22;1.33;;;1.33;;
80229;SDS011;69540;42.136;24.742;2023-07-16T10:19:49;1.30;;;1.30;;
80229;SDS011;69540;42.136;24.742;2023-07-16T10:24:57;1.42;;;1.42;;
80229;SDS011;69540;42.136;24.742;2023-07-16T10:27:27;1.40;;;1.40;;
80229;SDS011;69540;42.136;24.742;2023-07-16T10:29:56;1.52;;;1.42;;
80229;SDS011;69540;42.136;24.742;2023-07-16T10:32:25;1.35;;;1.35;;
80229;SDS011;69540;42.136;24.742;2023-07-16T10:34:53;1.38;;;1.38;;
80229;SDS011;69540;42.136;24.742;2023-07-16T10:37:19;1.23;;;1.23;;
80229;SDS011;69540;42.136;24.742;2023-07-16T10:39:51;1.38;;;1.38;;
80229;SDS011;69540;42.136;24.742;2023-07-16T10:42:19;0.95;;;0.95;;
80229;SDS011;69540;42.136;24.742;2023-07-16T10:44:47;1.42;;;1.42;;
80229;SDS011;69540;42.136;24.742;2023-07-16T10:47:40;1.77;;;1.70;;
80229;SDS011;69540;42.136;24.742;2023-07-16T10:50:08;1.20;;;1.20;;
80229;SDS011;69540;42.136;24.742;2023-07-16T10:52:35;1.30;;;1.30;;
80229;SDS011;69540;42.136;24.742;2023-07-16T10:55:01;1.35;;;1.35;;
80229;SDS011;69540;42.136;24.742;2023-07-16T10:57:28;1.42;;;1.42;;
80229;SDS011;69540;42.136;24.742;2023-07-16T10:59:55;1.27;;;1.27;;
80229;SDS011;69540;42.136;24.742;2023-07-16T11:02:24;1.55;;;1.45;;
80229;SDS011;69540;42.136;24.742;2023-07-16T11:04:50;1.35;;;1.35;;
80229;SDS011;69540;42.136;24.742;2023-07-16T11:07:20;1.17;;;1.17;;
80229;SDS011;69540;42.136;24.742;2023-07-16T11:09:47;1.95;;;1.85;;
80229;SDS011;69540;42.136;24.742;2023-07-16T11:12:15;1.20;;;1.20;;
80229;SDS011;69540;42.136;24.742;2023-07-16T11:14:43;1.20;;;1.20;;
80229;SDS011;69540;42.136;24.742;2023-07-16T11:17:14;1.20;;;1.20;;
80229;SDS011;69540;42.136;24.742;2023-07-16T11:19:40;1.42;;;1.42;;
80229;SDS011;69540;42.136;24.742;2023-07-16T11:22:09;1.40;;;1.30;;
80229;SDS011;69540;42.136;24.742;2023-07-16T11:27:05;1.33;;;1.33;;
80229;SDS011;69540;42.136;24.742;2023-07-16T11:29:39;1.42;;;1.42;;
80229;SDS011;69540;42.136;24.742;2023-07-16T11:32:07;1.40;;;1.40;;
80229;SDS011;69540;42.136;24.742;2023-07-16T11:34:32;1.60;;;1.50;;
80229;SDS011;69540;42.136;24.742;2023-07-16T11:37:10;1.52;;;1.42;;
80229;SDS011;69540;42.136;24.742;2023-07-16T11:39:36;1.40;;;1.40;;
80229;SDS011;69540;42.136;24.742;2023-07-16T11:42:03;1.10;;;1.10;;
80229;SDS011;69540;42.136;24.742;2023-07-16T11:44:33;1.40;;;1.40;;
80229;SDS011;69540;42.136;24.742;2023-07-16T11:47:00;1.20;;;1.20;;
80229;SDS011;69540;42.136;24.742;2023-07-16T11:49:26;1.42;;;1.42;;
80229;SDS011;69540;42.136;24.742;2023-07-16T11:51:52;1.40;;;1.40;;
80229;SDS011;69540;42.136;24.742;2023-07-16T11:54:18;1.38;;;1.38;;
80229;SDS011;69540;42.136;24.742;2023-07-16T11:56:43;1.20;;;1.20;;
80229;SDS011;69540;42.136;24.742;2023-07-16T11:59:09;1.77;;;1.67;;
80229;SDS011;69540;42.136;24.742;2023-07-16T12:01:34;1.60;;;1.50;;
80229;SDS011;69540;42.136;24.742;2023-07-16T12:04:00;1.40;;;1.40;;
80229;SDS011;69540;42.136;24.742;2023-07-16T12:06:26;1.48;;;1.45;;
80229;SDS011;69540;42.136;24.742;2023-07-16T12:08:51;1.48;;;1.40;;
80229;SDS011;69540;42.136;24.742;2023-07-16T12:11:17;1.27;;;1.27;;
80229;SDS011;69540;42.136;24.742;2023-07-16T12:13:43;1.40;;;1.30;;
80229;SDS011;69540;42.136;24.742;2023-07-16T12:16:08;1.35;;;1.25;;
80229;SDS011;69540;42.136;24.742;2023-07-16T12:18:34;1.55;;;1.45;;
80229;SDS011;69540;42.136;24.742;2023-07-16T12:20:59;1.55;;;1.45;;
80229;SDS011;69540;42.136;24.742;2023-07-16T12:23:25;1.70;;;1.60;;
80229;SDS011;69540;42.136;24.742;2023-07-16T12:25:51;1.30;;;1.30;;
80229;SDS011;69540;42.136;24.742;2023-07-16T12:28:16;1.67;;;1.58;;
80229;SDS011;69540;42.136;24.742;2023-07-16T12:30:42;1.65;;;1.58;;
80229;SDS011;69540;42.136;24.742;2023-07-16T12:33:07;1.73;;;1.63;;
80229;SDS011;69540;42.136;24.742;2023-07-16T12:35:33;1.30;;;1.30;;
80229;SDS011;69540;42.136;24.742;2023-07-16T12:37:59;1.50;;;1.50;;
80229;SDS011;69540;42.136;24.742;2023-07-16T12:40:25;1.55;;;1.48;;
80229;SDS011;69540;42.136;24.742;2023-07-16T12:42:51;1.40;;;1.40;;
80229;SDS011;69540;42.136;24.742;2023-07-16T12:45:16;1.65;;;1.55;;
80229;SDS011;69540;42.136;24.742;2023-07-16T12:47:42;1.85;;;1.75;;
80229;SDS011;69540;42.136;24.742;2023-07-16T12:50:07;1.70;;;1.60;;
80229;SDS011;69540;42.136;24.742;2023-07-16T12:52:33;1.38;;;1.38;;
80229;SDS011;69540;42.136;24.742;2023-07-16T12:54:59;1.30;;;1.30;;
80229;SDS011;69540;42.136;24.742;2023-07-16T12:57:25;1.23;;;1.23;;
80229;SDS011;69540;42.136;24.742;2023-07-16T12:59:50;1.92;;;1.83;;
80229;SDS011;69540;42.136;24.742;2023-07-16T13:02:16;1.80;;;1.70;;
80229;SDS011;69540;42.136;24.742;2023-07-16T13:04:41;1.52;;;1.42;;
80229;SDS011;69540;42.136;24.742;2023-07-16T13:07:07;1.80;;;1.70;;
80229;SDS011;69540;42.136;24.742;2023-07-16T13:09:33;1.10;;;1.10;;
80229;SDS011;69540;42.136;24.742;2023-07-16T13:11:59;1.55;;;1.48;;
80229;SDS011;69540;42.136;24.742;2023-07-16T13:14:25;1.60;;;1.50;;
80229;SDS011;69540;42.136;24.742;2023-07-16T13:16:51;1.50;;;1.42;;
80229;SDS011;69540;42.136;24.742;2023-07-16T13:19:17;1.70;;;1.60;;
80229;SDS011;69540;42.136;24.742;2023-07-16T13:21:42;1.60;;;1.60;;
80229;SDS011;69540;42.136;24.742;2023-07-16T13:24:08;1.58;;;1.58;;
80229;SDS011;69540;42.136;24.742;2023-07-16T13:26:34;1.60;;;1.60;;
80229;SDS011;69540;42.136;24.742;2023-07-16T13:29:00;1.80;;;1.70;;
80229;SDS011;69540;42.136;24.742;2023-07-16T13:31:25;1.40;;;1.40;;
80229;SDS011;69540;42.136;24.742;2023-07-16T13:33:51;1.73;;;1.65;;
80229;SDS011;69540;42.136;24.742;2023-07-16T13:36:16;1.65;;;1.60;;
80229;SDS011;69540;42.136;24.742;2023-07-16T13:38:42;1.55;;;1.52;;
80229;SDS011;69540;42.136;24.742;2023-07-16T13:41:08;1.50;;;1.50;;
80229;SDS011;69540;42.136;24.742;2023-07-16T13:43:34;1.65;;;1.58;;
80229;SDS011;69540;42.136;24.742;2023-07-16T13:46:00;1.27;;;1.27;;
80229;SDS011;69540;42.136;24.742;2023-07-16T13:48:26;1.58;;;1.48;;
80229;SDS011;69540;42.136;24.742;2023-07-16T13:50:51;1.60;;;1.50;;
80229;SDS011;69540;42.136;24.742;2023-07-16T13:53:17;1.77;;;1.67;;
80229;SDS011;69540;42.136;24.742;2023-07-16T13:55:42;1.65;;;1.55;;
80229;SDS011;69540;42.136;24.742;2023-07-16T13:58:09;1.70;;;1.60;;
80229;SDS011;69540;42.136;24.742;2023-07-16T14:00:35;1.70;;;1.60;;
80229;SDS011;69540;42.136;24.742;2023-07-16T14:03:01;1.67;;;1.58;;
80229;SDS011;69540;42.136;24.742;2023-07-16T14:05:27;1.48;;;1.42;;
80229;SDS011;69540;42.136;24.742;2023-07-16T14:07:52;1.90;;;1.80;;
80229;SDS011;69540;42.136;24.742;2023-07-16T14:10:19;1.63;;;1.52;;
80229;SDS011;69540;42.136;24.742;2023-07-16T14:12:44;1.60;;;1.60;;
80229;SDS011;69540;42.136;24.742;2023-07-16T14:15:10;1.40;;;1.40;;
80229;SDS011;69540;42.136;24.742;2023-07-16T14:17:36;1.45;;;1.45;;
80229;SDS011;69540;42.136;24.742;2023-07-16T14:20:01;1.60;;;1.60;;
80229;SDS011;69540;42.136;24.742;2023-07-16T14:22:28;1.70;;;1.60;;
80229;SDS011;69540;42.136;24.742;2023-07-16T14:24:54;1.70;;;1.60;;
80229;SDS011;69540;42.136;24.742;2023-07-16T14:27:20;1.70;;;1.60;;
80229;SDS011;69540;42.136;24.742;2023-07-16T14:29:45;1.35;;;1.35;;
80229;SDS011;69540;42.136;24.742;2023-07-16T14:32:11;1.40;;;1.40;;
80229;SDS011;69540;42.136;24.742;2023-07-16T14:34:38;1.60;;;1.60;;
80229;SDS011;69540;42.136;24.742;2023-07-16T14:37:03;1.58;;;1.58;;
80229;SDS011;69540;42.136;24.742;2023-07-16T14:39:29;1.58;;;1.58;;
80229;SDS011;69540;42.136;24.742;2023-07-16T14:41:55;1.63;;;1.60;;
80229;SDS011;69540;42.136;24.742;2023-07-16T14:44:21;1.48;;;1.48;;
80229;SDS011;69540;42.136;24.742;2023-07-16T14:46:46;1.70;;;1.60;;
80229;SDS011;69540;42.136;24.742;2023-07-16T14:49:12;1.67;;;1.58;;